Time;durP1;ratioP1;P1;durP2;ratioP2;P2;SDS_P1;SDS_P2;PMS_P1;PMS_P2;Temp;Humidity;BMP_temperature;BMP_pressure;BME280_temperature;BME280_humidity;BME280_pressure;Samples;Min_cycle;Max_cycle;Signal;HPM_P1;HPM_P2
2022/04/26 03:36:21;;;;;;;9.38;7.43;;;;;;;5.61;91.12;101353.00;4989883;28;20168;-83
2022/04/26 03:38:48;;;;;;;8.95;6.70;;;;;;;5.63;90.79;101361.75;4991126;28;20102;-83
2022/04/26 03:41:16;;;;;;;11.50;7.28;;;;;;;5.61;90.93;101358.28;4988470;28;20052;-83
2022/04/26 03:43:41;;;;;;;11.65;6.88;;;;;;;5.62;90.75;101360.88;4990269;28;20507;-83
2022/04/26 03:46:07;;;;;;;11.98;7.30;;;;;;;5.63;90.87;101361.75;4972751;28;20022;-83
2022/04/26 03:48:32;;;;;;;11.90;7.00;;;;;;;5.62;90.10;101355.59;4984797;28;20032;-83
2022/04/26 03:50:59;;;;;;;9.60;7.00;;;;;;;5.68;90.87;101367.78;4982954;28;20066;-84
2022/04/26 03:53:24;;;;;;;10.60;6.78;;;;;;;5.74;91.00;101367.66;4982314;28;20416;-84
2022/04/26 03:55:49;;;;;;;10.38;7.63;;;;;;;5.76;90.66;101376.41;4989151;28;20395;-83
2022/04/26 03:58:15;;;;;;;10.38;7.05;;;;;;;5.80;89.68;101371.94;4990323;28;20034;-84
2022/04/26 04:00:40;;;;;;;10.93;7.38;;;;;;;5.82;90.62;101364.84;4988154;28;20469;-84
2022/04/26 04:03:06;;;;;;;10.38;7.07;;;;;;;5.84;90.18;101377.09;4987528;28;20546;-83
2022/04/26 04:05:31;;;;;;;10.88;6.80;;;;;;;5.88;90.57;101384.06;4988353;28;20029;-83
2022/04/26 04:07:56;;;;;;;13.10;7.30;;;;;;;5.88;91.51;101384.06;4989052;28;20449;-83
2022/04/26 04:10:22;;;;;;;10.20;7.47;;;;;;;5.85;90.03;101378.88;4991175;28;20404;-83
2022/04/26 04:12:47;;;;;;;11.65;7.70;;;;;;;5.85;90.41;101384.16;4990405;28;20077;-84
2022/04/26 04:15:12;;;;;;;11.57;6.85;;;;;;;5.85;90.28;101384.16;4990632;28;20486;-84
2022/04/26 04:17:38;;;;;;;10.48;6.88;;;;;;;5.88;90.70;101386.69;4981386;28;20037;-84
2022/04/26 04:20:04;;;;;;;10.40;7.35;;;;;;;5.87;90.61;101394.66;4989250;28;20029;-84
2022/04/26 04:22:29;;;;;;;11.40;7.32;;;;;;;5.87;90.42;101394.66;4990373;28;20026;-84
2022/04/26 04:24:54;;;;;;;10.27;7.15;;;;;;;5.91;90.44;101398.97;4990341;28;20050;-84
2022/04/26 04:27:19;;;;;;;8.73;6.75;;;;;;;5.92;90.58;101396.31;4989201;28;20388;-84
2022/04/26 04:29:45;;;;;;;9.73;6.95;;;;;;;5.86;90.94;101383.25;4989989;28;20081;-84
2022/04/26 04:32:10;;;;;;;10.77;7.18;;;;;;;5.93;90.94;101398.06;4988679;28;20395;-84
2022/04/26 04:34:35;;;;;;;10.52;7.28;;;;;;;5.94;91.35;101396.31;4987413;28;20092;-84
2022/04/26 04:37:01;;;;;;;10.93;7.07;;;;;;;5.97;90.65;101399.72;4990542;28;20026;-85
2022/04/26 04:39:27;;;;;;;11.07;7.65;;;;;;;5.97;90.75;101405.00;4971353;28;20038;-84
2022/04/26 04:41:52;;;;;;;10.85;7.78;;;;;;;5.97;91.12;101410.28;4989724;28;20058;-84
2022/04/26 04:44:22;;;;;;;10.73;7.90;;;;;;;5.96;91.38;101411.22;4987067;28;20657;-84
2022/04/26 04:46:48;;;;;;;11.30;7.97;;;;;;;5.96;91.25;101418.28;4981778;28;20474;-85
2022/04/26 04:49:13;;;;;;;12.38;7.90;;;;;;;5.96;91.09;101413.84;4989403;28;20057;-85
2022/04/26 04:51:38;;;;;;;13.68;7.85;;;;;;;5.93;91.96;101408.63;4989458;28;20471;-85
2022/04/26 04:54:04;;;;;;;11.98;7.82;;;;;;;6.04;91.42;101426.03;4985982;28;20026;-84
2022/04/26 04:56:30;;;;;;;14.07;8.40;;;;;;;6.05;91.29;101428.63;4972195;28;20018;-84
2022/04/26 04:58:55;;;;;;;12.02;8.20;;;;;;;6.04;91.65;101431.31;4988453;28;20034;-84
2022/04/26 05:01:21;;;;;;;11.38;8.13;;;;;;;6.06;91.94;101434.78;4968321;28;20042;-84
2022/04/26 05:03:46;;;;;;;14.10;7.95;;;;;;;6.06;91.62;101429.50;4985572;28;20030;-84
2022/04/26 05:06:16;;;;;;;13.40;7.97;;;;;;;6.08;91.35;101438.28;4985368;28;20046;-85
2022/04/26 05:08:42;;;;;;;10.68;7.93;;;;;;;6.04;91.81;101437.47;4980476;28;20034;-84
2022/04/26 05:11:08;;;;;;;11.20;8.05;;;;;;;6.04;92.43;101436.59;4988141;28;20469;-84
2022/04/26 05:13:33;;;;;;;13.20;8.40;;;;;;;6.07;92.44;101444.47;4980315;28;20202;-85
2022/04/26 05:15:58;;;;;;;15.48;8.40;;;;;;;6.10;91.99;101452.31;4975676;28;20026;-84
2022/04/26 05:18:24;;;;;;;15.02;7.90;;;;;;;6.09;92.07;101446.16;4989186;28;20022;-84
2022/04/26 05:20:49;;;;;;;14.23;7.97;;;;;;;6.10;92.03;101447.88;4978812;28;20451;-84
2022/04/26 05:25:58;;;;;;;13.88;8.85;;;;;;;6.03;91.89;101446.31;4988403;28;20117;-85
2022/04/26 05:28:24;;;;;;;13.00;8.60;;;;;;;6.15;91.70;101459.25;4984798;28;20082;-85
2022/04/26 05:30:53;;;;;;;12.93;8.55;;;;;;;6.15;91.03;101459.25;4981369;28;20322;-85
2022/04/26 05:33:18;;;;;;;15.45;8.65;;;;;;;6.28;91.85;101467.75;4987945;28;20074;-84
2022/04/26 05:35:43;;;;;;;12.75;8.73;;;;;;;6.29;91.35;101456.28;4987490;28;20053;-84
2022/04/26 05:38:08;;;;;;;12.23;8.18;;;;;;;6.43;90.83;101471.81;4971632;28;20045;-84
2022/04/26 05:40:34;;;;;;;15.20;8.63;;;;;;;6.47;90.91;101469.03;4988325;28;20341;-85
2022/04/26 05:42:59;;;;;;;13.52;8.18;;;;;;;6.52;89.70;101476.00;4981412;28;21676;-85
2022/04/26 05:45:27;;;;;;;16.42;8.52;;;;;;;6.54;89.90;101469.78;4989015;28;20040;-85
2022/04/26 05:47:53;;;;;;;14.55;8.55;;;;;;;6.65;90.06;101477.47;4984574;28;20129;-85
2022/04/26 05:50:18;;;;;;;11.57;8.50;;;;;;;6.66;89.40;101468.63;4978868;28;20033;-85
2022/04/26 05:52:43;;;;;;;12.20;9.10;;;;;;;6.71;89.03;101478.16;4971897;28;20038;-86
2022/04/26 05:55:09;;;;;;;12.88;8.77;;;;;;;6.69;89.01;101477.34;4988370;28;20027;-85
2022/04/26 05:57:38;;;;;;;16.23;9.07;;;;;;;6.76;88.61;101487.78;4986332;28;20090;-85
2022/04/26 06:00:08;;;;;;;12.07;8.93;;;;;;;6.77;88.70;101486.84;4969768;28;20023;-82
2022/04/26 06:02:34;;;;;;;11.90;8.20;;;;;;;6.72;88.31;101481.69;4976925;28;20480;-83
2022/04/26 06:04:59;;;;;;;12.23;8.55;;;;;;;6.73;87.70;101486.97;4982777;28;20033;-84
2022/04/26 06:07:24;;;;;;;11.38;8.70;;;;;;;6.78;88.49;101491.25;4988111;28;20068;-83
2022/04/26 06:09:53;;;;;;;11.68;8.48;;;;;;;6.77;88.12;101492.16;4980515;28;20043;-84
2022/04/26 06:12:19;;;;;;;12.57;8.38;;;;;;;6.79;88.30;101487.69;4971588;28;20026;-84
2022/04/26 06:14:44;;;;;;;13.27;8.10;;;;;;;6.84;87.57;101491.09;4983758;28;20436;-84
2022/04/26 06:17:09;;;;;;;14.38;8.68;;;;;;;6.87;87.79;101488.38;4975724;28;20026;-84
2022/04/26 06:19:35;;;;;;;15.60;8.90;;;;;;;7.01;86.84;101498.59;4987820;28;20031;-84
2022/04/26 06:22:00;;;;;;;13.32;9.02;;;;;;;7.11;87.47;101497.47;4983808;28;20045;-83
2022/04/26 06:24:25;;;;;;;13.32;8.88;;;;;;;7.27;86.91;101495.28;4988323;28;20026;-83
2022/04/26 06:26:51;;;;;;;12.95;8.85;;;;;;;7.32;86.38;101494.25;4967074;28;20050;-84
2022/04/26 06:29:16;;;;;;;13.27;9.35;;;;;;;7.43;86.54;101510.72;4983920;28;20061;-84
2022/04/26 06:31:41;;;;;;;12.90;9.52;;;;;;;7.42;86.25;101503.69;4966386;28;20108;-84
2022/04/26 06:34:06;;;;;;;12.07;8.50;;;;;;;7.44;85.49;101496.56;4983278;28;20025;-84
2022/04/26 06:36:32;;;;;;;12.35;9.55;;;;;;;7.49;85.36;101515.84;4939832;28;20384;-84
2022/04/26 06:38:57;;;;;;;14.27;9.77;;;;;;;7.56;85.68;101507.72;4966629;28;20117;-83
2022/04/26 06:41:22;;;;;;;14.10;9.38;;;;;;;7.69;84.66;101511.75;4974979;28;20027;-84
2022/04/26 06:43:47;;;;;;;17.23;9.63;;;;;;;7.82;84.91;101515.81;4984170;28;20042;-84
2022/04/26 06:46:13;;;;;;;13.98;9.35;;;;;;;7.96;83.27;101515.41;4986510;28;20031;-84
2022/04/26 06:48:38;;;;;;;14.88;10.60;;;;;;;8.11;83.03;101516.72;4976644;28;20049;-83
2022/04/26 06:51:03;;;;;;;15.73;10.23;;;;;;;8.31;83.44;101516.13;4985214;28;20458;-82
2022/04/26 06:53:29;;;;;;;13.13;9.65;;;;;;;8.42;81.73;101520.22;4987614;28;20029;-84
2022/04/26 06:55:54;;;;;;;13.05;9.80;;;;;;;8.50;81.04;101527.09;4978802;28;20448;-82
2022/04/26 06:58:19;;;;;;;14.13;10.93;;;;;;;8.48;81.39;101530.66;4979267;28;20061;-84
2022/04/26 07:00:46;;;;;;;14.18;10.65;;;;;;;8.43;80.80;101524.59;4968478;28;20030;-81
2022/04/26 07:03:12;;;;;;;12.07;9.40;;;;;;;8.25;80.58;101522.50;4968942;28;20105;-82
2022/04/26 07:05:37;;;;;;;13.93;10.02;;;;;;;8.24;80.70;101529.59;4977307;28;20044;-82
2022/04/26 07:08:02;;;;;;;15.05;10.50;;;;;;;8.11;80.71;101522.94;4974243;28;20026;-83
2022/04/26 07:10:31;;;;;;;13.00;10.75;;;;;;;8.16;81.18;101536.03;4968888;28;20085;-83
2022/04/26 07:12:56;;;;;;;15.13;10.73;;;;;;;8.23;80.73;101532.28;4951034;28;20642;-83
2022/04/26 07:15:21;;;;;;;14.48;11.30;;;;;;;8.40;81.03;101540.66;4979909;28;20130;-82
2022/04/26 07:17:46;;;;;;;15.93;11.32;;;;;;;8.58;80.83;101525.06;4967847;28;20030;-84
2022/04/26 07:20:12;;;;;;;19.55;10.80;;;;;;;8.81;79.27;101535.78;4976447;28;20041;-83
2022/04/26 07:22:38;;;;;;;14.70;10.40;;;;;;;8.86;77.98;101540.94;4978335;28;20109;-84
2022/04/26 07:25:05;;;;;;;13.48;10.68;;;;;;;8.85;78.55;101536.56;4977326;28;20181;-84
2022/04/26 07:27:31;;;;;;;16.13;10.75;;;;;;;8.97;76.98;101545.00;4949812;28;20054;-83
2022/04/26 07:29:56;;;;;;;12.60;10.32;;;;;;;8.98;77.52;101545.84;4970537;28;20061;-84
2022/04/26 07:34:20;;;;;;;17.40;10.48;;;;;;;9.08;76.10;101541.13;4975081;28;20080;-83
2022/04/26 07:35:09;;;;;;;16.30;10.20;;;;;;;9.35;74.94;101553.47;4967075;28;20050;-83
2022/04/26 07:37:34;;;;;;;14.93;11.07;;;;;;;9.27;74.84;101544.03;4979957;28;20060;-83
2022/04/26 07:40:00;;;;;;;12.52;10.45;;;;;;;9.30;75.29;101558.06;4983251;28;20180;-84
2022/04/26 07:42:25;;;;;;;13.02;10.27;;;;;;;9.36;74.83;101560.50;4981287;28;20038;-83
2022/04/26 07:44:50;;;;;;;13.00;10.25;;;;;;;9.33;74.89;101560.63;4982144;28;20089;-84
2022/04/26 07:47:16;;;;;;;12.25;9.90;;;;;;;9.31;75.18;101559.78;4979331;28;20401;-83
2022/04/26 07:49:41;;;;;;;14.25;10.57;;;;;;;9.29;75.49;101566.97;4977682;28;20042;-83
2022/04/26 07:52:07;;;;;;;12.70;9.95;;;;;;;9.27;74.85;101565.28;4978748;28;20502;-83
2022/04/26 07:54:32;;;;;;;15.15;10.90;;;;;;;9.20;74.43;101567.28;4971507;28;20034;-83
2022/04/26 07:56:58;;;;;;;16.48;10.60;;;;;;;9.21;74.13;101566.34;4960566;28;20084;-82
2022/04/26 07:59:25;;;;;;;13.55;10.30;;;;;;;9.32;74.15;101577.50;4979689;28;20038;-83
2022/04/26 08:01:50;;;;;;;14.60;9.65;;;;;;;9.45;73.61;101576.16;4972864;28;20270;-82
2022/04/26 08:04:16;;;;;;;14.10;9.75;;;;;;;9.55;73.45;101576.69;4963468;28;20029;-83
2022/04/26 08:06:42;;;;;;;11.43;10.10;;;;;;;9.62;73.15;101580.88;4958051;28;20034;-83
2022/04/26 08:09:08;;;;;;;14.60;10.77;;;;;;;9.69;72.69;101570.88;4975295;28;20078;-83
2022/04/26 08:11:33;;;;;;;16.42;10.02;;;;;;;9.76;71.23;101583.03;4960591;28;20049;-83
2022/04/26 08:13:59;;;;;;;12.52;9.90;;;;;;;9.87;71.25;101580.88;4954159;28;20085;-83
2022/04/26 08:16:24;;;;;;;14.18;9.70;;;;;;;10.01;71.05;101592.78;4980759;28;20451;-83
2022/04/26 08:18:49;;;;;;;12.65;9.65;;;;;;;10.10;68.01;101593.31;4979082;28;23126;-83
2022/04/26 08:21:15;;;;;;;15.07;9.23;;;;;;;10.46;69.31;101590.25;4973810;28;20244;-84
2022/04/26 08:29:22;;;;;;;14.13;8.50;;;;;;;11.15;65.67;101600.78;4929942;29;20070;-82
2022/04/26 08:31:48;;;;;;;12.45;8.57;;;;;;;11.23;64.62;101604.88;4932435;28;20114;-83
2022/04/26 08:34:13;;;;;;;16.00;8.95;;;;;;;11.18;65.19;101603.34;4940137;29;20497;-83
2022/04/26 08:36:38;;;;;;;10.18;7.97;;;;;;;11.18;63.79;101606.88;4930237;29;20074;-83
2022/04/26 08:39:04;;;;;;;15.85;8.60;;;;;;;11.29;64.42;101614.44;4937844;29;20035;-82
2022/04/26 08:41:29;;;;;;;13.23;8.77;;;;;;;11.66;64.22;101616.41;4930950;29;20655;-83
2022/04/26 08:43:55;;;;;;;12.57;8.10;;;;;;;11.95;63.78;101611.59;4926314;28;20485;-83
2022/04/26 08:46:20;;;;;;;14.95;8.63;;;;;;;12.81;60.14;101618.34;4930106;29;20035;-83
2022/04/26 08:51:29;;;;;;;12.75;8.00;;;;;;;12.93;58.01;101609.75;4931660;29;20082;-83
2022/04/26 08:53:55;;;;;;;11.35;8.48;;;;;;;12.62;58.94;101615.66;4932184;28;20409;-83
2022/04/26 08:56:20;;;;;;;14.95;8.27;;;;;;;12.38;60.90;101633.72;4939818;29;20043;-83
2022/04/26 08:58:46;;;;;;;13.70;8.40;;;;;;;12.58;61.88;101614.97;4931562;29;20118;-83
2022/04/26 09:01:22;;;;;;;10.27;8.40;;;;;;;13.02;58.38;101625.31;4929323;28;20621;-83
2022/04/26 09:03:54;;;;;;;12.45;8.27;;;;;;;13.07;58.53;101625.97;4960369;28;20039;-83
2022/04/26 09:06:21;;;;;;;11.18;8.63;;;;;;;13.08;57.75;101624.16;4955280;28;20396;-83
2022/04/26 09:08:48;;;;;;;12.95;8.70;;;;;;;13.49;55.20;101630.16;4966757;28;20392;-83
2022/04/26 09:11:20;;;;;;;13.48;8.38;;;;;;;13.85;55.96;101630.09;4961624;28;20031;-83
2022/04/26 09:13:45;;;;;;;11.30;7.70;;;;;;;13.71;54.24;101629.94;4959744;28;20457;-83
2022/04/26 09:16:19;;;;;;;12.35;8.50;;;;;;;13.56;54.57;101636.06;4967175;28;20118;-83
2022/04/26 09:18:53;;;;;;;12.02;7.25;;;;;;;14.00;55.66;101640.91;4949918;28;20117;-84
2022/04/26 09:21:19;;;;;;;11.00;7.70;;;;;;;14.76;51.83;101623.44;4961960;28;20034;-83
2022/04/26 09:23:46;;;;;;;9.35;7.65;;;;;;;15.38;49.45;101636.84;4956313;28;20765;-84
2022/04/26 09:26:14;;;;;;;12.85;7.20;;;;;;;15.25;48.68;101639.38;4955834;28;20054;-84
2022/04/26 09:28:45;;;;;;;9.45;7.22;;;;;;;15.32;48.19;101639.91;4975315;28;20073;-84
2022/04/26 09:31:22;;;;;;;10.32;7.45;;;;;;;15.31;49.81;101640.88;4973149;28;20035;-84
2022/04/26 09:33:52;;;;;;;10.60;7.63;;;;;;;15.60;48.00;101648.06;4967751;28;20045;-84
2022/04/26 09:36:20;;;;;;;8.52;6.75;;;;;;;15.24;47.02;101640.34;4959468;28;20026;-84
2022/04/26 09:38:53;;;;;;;8.90;6.70;;;;;;;15.07;48.33;101644.00;4948905;28;20476;-83
2022/04/26 09:41:19;;;;;;;12.43;6.82;;;;;;;15.12;48.18;101655.31;4984682;28;20030;-83
2022/04/26 09:44:05;;;;;;;9.68;7.13;;;;;;;14.95;49.98;101648.22;4980470;28;20035;-83
2022/04/26 09:46:42;;;;;;;10.55;7.05;;;;;;;14.86;50.68;101654.09;4982117;28;20030;-83
2022/04/26 09:49:09;;;;;;;11.07;7.13;;;;;;;14.45;49.73;101654.53;4989610;28;20113;-83
2022/04/26 09:51:36;;;;;;;10.90;7.15;;;;;;;14.36;50.91;101655.03;4967761;28;20042;-83
2022/04/26 09:54:01;;;;;;;11.70;7.18;;;;;;;14.59;51.13;101658.31;4980571;28;20026;-83
2022/04/26 09:56:28;;;;;;;10.95;6.85;;;;;;;15.17;49.20;101660.41;4989209;28;20037;-83
2022/04/26 09:59:00;;;;;;;9.13;6.88;;;;;;;15.97;47.93;101661.13;4969986;28;20049;-82
2022/04/26 10:01:38;;;;;;;12.02;7.15;;;;;;;16.26;46.17;101660.22;4989151;28;20101;-83
2022/04/26 10:04:04;;;;;;;9.18;6.60;;;;;;;16.51;45.74;101681.06;4982727;28;20034;-83
2022/04/26 10:06:33;;;;;;;11.27;6.18;;;;;;;18.12;43.59;101667.81;4971803;28;20097;-83
2022/04/26 10:08:59;;;;;;;6.68;5.53;;;;;;;20.05;37.95;101667.13;4982655;28;20038;-83
2022/04/26 10:11:25;;;;;;;9.85;6.03;;;;;;;21.37;36.31;101657.44;4969965;28;20045;-83
2022/04/26 10:13:51;;;;;;;7.93;5.57;;;;;;;21.84;34.37;101671.50;4987245;28;20018;-83
2022/04/26 10:16:23;;;;;;;6.90;5.38;;;;;;;21.33;34.36;101675.78;4956964;28;20129;-83
2022/04/26 10:18:49;;;;;;;7.70;5.60;;;;;;;22.00;32.84;101679.19;4971130;28;20029;-82
2022/04/26 10:21:21;;;;;;;7.03;5.32;;;;;;;22.11;33.21;101682.69;4982130;28;20042;-83
2022/04/26 10:24:01;;;;;;;9.70;5.50;;;;;;;20.98;33.64;101692.16;4985928;28;20031;-84
2022/04/26 10:26:27;;;;;;;8.00;5.30;;;;;;;19.33;35.61;101695.03;4980517;28;20045;-83
2022/04/26 10:28:57;;;;;;;8.90;5.93;;;;;;;20.02;37.77;101702.50;4994248;28;20389;-83
2022/04/26 10:31:38;;;;;;;8.48;5.20;;;;;;;21.94;34.23;101701.38;4988824;28;20110;-84
2022/04/26 10:34:28;;;;;;;5.45;4.75;;;;;;;22.12;34.12;101700.72;4985200;28;20448;-84
2022/04/26 10:37:06;;;;;;;7.15;4.93;;;;;;;22.65;32.32;101694.28;4982220;28;20080;-83
2022/04/26 10:39:39;;;;;;;6.45;5.20;;;;;;;23.28;31.67;101696.81;4980666;28;20365;-83
2022/04/26 10:42:18;;;;;;;7.18;4.45;;;;;;;23.79;29.84;101699.34;4987851;28;20042;-84
2022/04/26 10:44:46;;;;;;;5.35;4.70;;;;;;;24.03;28.62;101692.56;4978758;28;20076;-84
2022/04/26 10:47:18;;;;;;;7.43;4.65;;;;;;;24.50;27.79;101711.72;4970282;28;20050;-84
2022/04/26 10:49:45;;;;;;;6.88;4.60;;;;;;;23.59;28.68;101700.28;4969897;28;20461;-83
2022/04/26 10:52:22;;;;;;;8.80;4.82;;;;;;;23.18;28.45;101699.50;4974900;28;20030;-83
2022/04/26 10:55:01;;;;;;;8.77;5.10;;;;;;;23.68;28.05;101699.47;4974779;28;20388;-84
2022/04/26 10:57:41;;;;;;;5.55;3.97;;;;;;;25.09;28.40;101700.44;4974768;28;20031;-83
2022/04/26 11:00:09;;;;;;;6.63;4.60;;;;;;;25.76;25.08;101698.25;4969158;28;20026;-83
2022/04/26 11:02:40;;;;;;;7.30;4.53;;;;;;;26.15;25.96;101699.78;4980472;28;20039;-84
2022/04/26 11:05:10;;;;;;;6.53;4.75;;;;;;;26.20;23.39;101697.44;4973054;28;20381;-84
2022/04/26 11:07:37;;;;;;;5.30;4.70;;;;;;;26.25;23.88;101690.50;4979369;28;20717;-84
2022/04/26 11:10:04;;;;;;;8.48;5.00;;;;;;;25.49;24.68;101693.72;4969725;28;20045;-84
2022/04/26 11:12:34;;;;;;;7.45;4.72;;;;;;;25.61;24.66;101707.13;4977053;28;20039;-84
2022/04/26 11:15:05;;;;;;;5.10;4.60;;;;;;;25.17;25.43;101694.25;4970734;28;20449;-83
2022/04/26 11:17:30;;;;;;;7.00;4.95;;;;;;;25.50;24.24;101700.91;4967897;28;20101;-83
2022/04/26 11:20:00;;;;;;;7.78;4.90;;;;;;;25.30;24.93;101692.00;4969648;28;20145;-83
2022/04/26 11:22:27;;;;;;;8.50;4.82;;;;;;;25.07;24.75;101696.13;4968811;28;20128;-86
2022/04/26 11:28:09;;;;;;;5.72;5.13;;;;;;;26.04;23.93;101700.91;4976203;28;20101;-82
2022/04/26 11:30:45;;;;;;;7.47;5.00;;;;;;;25.84;25.55;101697.50;4971449;28;20126;-84
2022/04/26 11:33:24;;;;;;;5.80;4.85;;;;;;;25.49;25.50;101701.91;4965492;28;20035;-84
2022/04/26 11:35:52;;;;;;;7.47;4.70;;;;;;;25.12;26.12;101702.00;4978669;28;20034;-84
2022/04/26 11:38:18;;;;;;;5.85;5.10;;;;;;;25.24;24.89;101705.38;4976081;28;20034;-85
2022/04/26 11:40:52;;;;;;;8.02;5.28;;;;;;;25.38;26.04;101701.28;4974125;28;20023;-83
2022/04/26 11:43:20;;;;;;;6.88;5.25;;;;;;;25.39;24.74;101703.84;4973470;28;20032;-86
2022/04/26 11:45:47;;;;;;;7.20;5.22;;;;;;;26.05;24.02;101702.63;4954240;28;20291;-84
2022/04/26 11:48:15;;;;;;;6.25;5.03;;;;;;;27.33;23.31;101707.28;4968454;28;20039;-83
2022/04/26 11:50:42;;;;;;;8.75;5.28;;;;;;;26.66;23.56;101709.88;4976456;28;20038;-85
2022/04/26 11:53:19;;;;;;;7.70;5.20;;;;;;;25.42;26.32;101713.59;4976289;28;20530;-85
2022/04/26 11:55:55;;;;;;;8.60;5.72;;;;;;;25.82;24.51;101710.44;4977481;28;20285;-82
2022/04/26 11:58:22;;;;;;;6.40;4.70;;;;;;;26.25;23.92;101715.06;4982509;28;20026;-83
2022/04/26 12:01:07;;;;;;;7.03;5.10;;;;;;;27.32;24.29;101708.31;4977138;28;20170;-84
2022/04/26 12:03:47;;;;;;;6.07;5.13;;;;;;;27.84;23.52;101716.31;4975795;28;20163;-86
2022/04/26 12:06:15;;;;;;;5.90;5.28;;;;;;;28.14;21.28;101720.22;4972968;28;20033;-84
2022/04/26 12:08:48;;;;;;;7.63;5.30;;;;;;;28.30;21.59;101724.84;4975086;28;20065;-85
2022/04/26 12:11:15;;;;;;;;;;;;;;;28.12;24.12;101722.28;4982625;28;20029;-86
2022/04/26 12:13:40;;;;;;;8.45;5.85;;;;;;;27.28;22.02;101723.34;4974813;28;19956;-85
2022/04/26 12:16:15;;;;;;;11.73;6.00;;;;;;;25.32;24.12;101728.13;4983839;28;20050;-85
2022/04/26 12:18:55;;;;;;;6.78;5.38;;;;;;;24.77;25.60;101730.81;4978884;28;20239;-84
2022/04/26 12:21:22;;;;;;;9.15;6.22;;;;;;;25.95;24.33;101724.53;4979234;28;20053;-83
2022/04/26 12:24:07;;;;;;;7.28;5.68;;;;;;;26.86;22.69;101728.75;4976556;28;20125;-84
2022/04/26 12:26:33;;;;;;;6.75;5.53;;;;;;;27.58;21.32;101716.38;4975171;28;20050;-85
2022/04/26 12:28:58;;;;;;;6.72;5.47;;;;;;;28.54;20.58;101733.03;4976145;28;20038;-85
2022/04/26 12:31:26;;;;;;;5.70;5.10;;;;;;;28.57;20.86;101736.47;4978431;28;20023;-85
2022/04/26 12:34:14;;;;;;;6.63;5.70;;;;;;;27.14;21.74;101727.56;4963159;28;20042;-84
2022/04/26 12:36:59;;;;;;;7.75;5.50;;;;;;;26.93;23.18;101730.69;4978654;28;20113;-86
2022/04/26 12:39:47;;;;;;;8.30;6.10;;;;;;;27.55;21.76;101734.00;4970780;28;20031;-85
2022/04/26 12:42:28;;;;;;;8.18;6.68;;;;;;;26.62;20.87;101732.22;4978441;28;20085;-85
2022/04/26 12:44:56;;;;;;;7.68;5.75;;;;;;;26.80;21.90;101725.69;4957266;28;20038;-85
2022/04/26 12:52:54;;;;;;;6.63;5.38;;;;;;;27.50;20.99;101730.03;4980819;28;20041;-84
2022/04/26 12:55:34;;;;;;;6.30;5.40;;;;;;;27.76;21.32;101729.97;4981892;28;20034;-85
2022/04/26 12:58:11;;;;;;;6.28;5.18;;;;;;;27.70;20.48;101725.97;4960796;28;20403;-85
2022/04/26 13:00:44;;;;;;;10.73;7.70;;;;;;;27.39;20.91;101719.44;4986389;28;20034;-84
2022/04/26 13:03:10;;;;;;;;;;;;;;;28.70;20.55;101732.13;4980463;28;20073;-86
2022/04/26 13:05:37;;;;;;;6.95;6.05;;;;;;;27.40;20.77;101726.63;4976904;28;20548;-85
2022/04/26 13:08:03;;;;;;;7.00;5.55;;;;;;;27.51;20.86;101724.44;4976077;28;20484;-85
2022/04/26 13:10:28;;;;;;;6.00;5.10;;;;;;;26.68;20.84;101737.03;4984680;28;20049;-84
2022/04/26 13:12:53;;;;;;;7.35;5.18;;;;;;;26.54;20.95;101733.91;4983989;28;20118;-85
2022/04/26 13:15:23;;;;;;;7.65;5.57;;;;;;;26.51;21.00;101734.22;4975402;28;20030;-85
2022/04/26 13:17:48;;;;;;;8.00;5.30;;;;;;;25.93;22.16;101728.44;4971476;28;20058;-84
2022/04/26 13:20:14;;;;;;;6.88;4.78;;;;;;;24.43;22.70;101726.91;4978018;28;20073;-85
2022/04/26 13:22:39;;;;;;;7.68;6.47;;;;;;;23.70;23.74;101730.09;4975896;28;20484;-85
2022/04/26 13:25:06;;;;;;;8.77;5.30;;;;;;;23.20;24.45;101735.56;4975379;28;20037;-84
2022/04/26 13:27:32;;;;;;;8.73;6.00;;;;;;;22.68;25.40;101726.59;4975689;28;20054;-84
2022/04/26 13:29:58;;;;;;;7.80;4.90;;;;;;;22.48;25.60;101728.31;4973341;28;20049;-85
2022/04/26 13:32:23;;;;;;;7.55;5.72;;;;;;;22.05;26.29;101732.00;4972347;28;20106;-85
2022/04/26 13:34:48;;;;;;;7.78;5.55;;;;;;;21.86;27.03;101732.72;4979714;28;20122;-84
2022/04/26 13:37:14;;;;;;;6.75;5.53;;;;;;;21.66;27.57;101732.69;4979667;28;20152;-84
2022/04/26 13:39:40;;;;;;;8.52;5.55;;;;;;;21.32;27.74;101730.06;4968735;28;20373;-85
2022/04/26 13:42:06;;;;;;;6.78;5.68;;;;;;;21.47;27.70;101723.34;4951578;28;20031;-85
2022/04/26 13:44:33;;;;;;;7.03;5.00;;;;;;;21.44;27.73;101730.88;4971429;28;20041;-85
2022/04/26 13:46:58;;;;;;;6.22;4.60;;;;;;;20.92;28.58;101740.53;4979586;28;20041;-84
2022/04/26 13:49:24;;;;;;;6.20;5.13;;;;;;;20.44;29.14;101740.69;4971581;28;20054;-85
2022/04/26 13:51:50;;;;;;;6.85;5.18;;;;;;;20.91;28.86;101741.50;4973696;28;20036;-86
2022/04/26 13:54:15;;;;;;;5.22;4.72;;;;;;;20.62;28.44;101744.69;4970930;28;20018;-87
2022/04/26 13:56:42;;;;;;;6.43;5.00;;;;;;;19.80;29.39;101725.75;4972839;28;20133;-85
2022/04/26 13:59:07;;;;;;;7.03;5.25;;;;;;;20.06;30.64;101744.50;4972472;28;20031;-86
2022/04/26 14:01:33;;;;;;;7.68;5.82;;;;;;;19.72;30.31;101740.81;4972576;28;20019;-86
2022/04/26 14:03:58;;;;;;;7.22;5.70;;;;;;;19.58;31.11;101739.97;4975978;28;20543;-85
2022/04/26 14:06:23;;;;;;;7.95;5.28;;;;;;;19.56;31.13;101736.56;4965239;28;20497;-85
2022/04/26 14:08:49;;;;;;;7.05;4.93;;;;;;;19.69;31.15;101741.94;4958497;28;20575;-86
2022/04/26 14:11:16;;;;;;;6.88;5.22;;;;;;;19.54;31.24;101732.22;4962309;28;20084;-85
2022/04/26 14:21:54;;;;;;;9.07;5.60;;;;;;;18.69;32.27;101747.41;4983033;28;20129;-85
2022/04/26 14:24:19;;;;;;;5.93;5.07;;;;;;;18.45;32.55;101741.88;4978323;28;20128;-86
2022/04/26 14:26:45;;;;;;;7.72;5.13;;;;;;;18.07;33.60;101746.25;4978822;28;20145;-87
2022/04/26 14:29:10;;;;;;;6.32;5.60;;;;;;;17.76;34.25;101755.53;4978201;28;20030;-87
2022/04/26 14:31:36;;;;;;;9.40;4.85;;;;;;;17.57;34.33;101746.91;4954244;28;20070;-86
2022/04/26 14:34:02;;;;;;;7.35;5.50;;;;;;;17.45;34.58;101748.59;4973974;28;20398;-87
2022/04/26 14:36:27;;;;;;;5.60;4.97;;;;;;;17.57;36.21;101746.91;4960614;28;20822;-87
2022/04/26 14:38:53;;;;;;;6.40;4.80;;;;;;;17.87;34.78;101750.28;4963075;28;20033;-88
2022/04/26 14:41:18;;;;;;;7.18;5.00;;;;;;;17.69;34.35;101746.13;4982915;28;20031;-87
2022/04/26 14:43:43;;;;;;;9.85;5.00;;;;;;;17.56;34.70;101746.06;4964215;28;20037;-87
2022/04/26 14:46:08;;;;;;;7.43;5.75;;;;;;;17.67;34.73;101745.34;4977408;28;20217;-88
2022/04/26 14:48:34;;;;;;;7.70;6.03;;;;;;;17.44;34.17;101744.19;4974320;28;20069;-86
2022/04/26 14:51:02;;;;;;;8.98;5.10;;;;;;;17.24;34.65;101764.28;4979514;28;20334;-87
2022/04/26 14:53:27;;;;;;;8.30;5.15;;;;;;;17.30;34.75;101758.50;4982721;28;20041;-86
2022/04/26 14:55:53;;;;;;;6.53;4.82;;;;;;;17.54;34.85;101745.28;4982908;28;20038;-86
2022/04/26 14:58:19;;;;;;;9.65;4.85;;;;;;;17.78;33.50;101742.84;4979418;28;20034;-86
2022/04/26 15:00:44;;;;;;;5.95;4.63;;;;;;;17.86;33.96;101756.66;4959124;28;20031;-88
2022/04/26 15:03:09;;;;;;;7.57;5.18;;;;;;;17.45;33.70;101748.59;4976481;28;20351;-85
2022/04/26 15:05:34;;;;;;;7.95;5.30;;;;;;;17.49;33.91;101766.25;4972860;28;20038;-85
2022/04/26 15:10:44;;;;;;;7.93;4.75;;;;;;;16.95;34.72;101749.16;4974446;28;20073;-82
2022/04/26 15:18:37;;;;;;;;;;;;;;;17.06;34.94;101770.88;4981096;28;20610;-87
2022/04/26 15:21:04;;;;;;;6.28;5.03;;;;;;;16.48;35.11;101766.38;4974016;28;19922;-87
2022/04/26 15:23:31;;;;;;;5.70;4.30;;;;;;;16.35;36.46;101772.50;4969605;28;20417;-86
2022/04/26 15:25:56;;;;;;;7.43;4.70;;;;;;;16.41;36.04;101756.00;4978395;28;20654;-85
2022/04/26 15:28:24;;;;;;;5.90;4.47;;;;;;;16.21;36.19;101764.38;4978886;28;20019;-86
2022/04/26 15:30:50;;;;;;;6.40;5.00;;;;;;;16.10;36.73;101753.44;4976819;28;20033;-87
2022/04/26 15:33:19;;;;;;;6.82;4.40;;;;;;;15.93;36.83;101759.81;4987034;28;20118;-86
2022/04/26 15:35:45;;;;;;;6.28;4.85;;;;;;;15.72;37.09;101761.94;4957580;28;20043;-90
2022/04/26 15:38:12;;;;;;;5.75;4.82;;;;;;;15.57;36.88;101760.06;4980457;28;20093;-85